Terminal Aerodrome Forecast
Issued by NWS Sterling, VA

Current Version | Previous Version | Graphics & Text | Print | Product List | Glossary On
Versions: 1 2 3 4 5 6 7 8 9 10 11 12 13 14 15 16 17 18 19 20 21
655
FTUS41 KLWX 211740
TAFIAD
TAF
KIAD 211740Z 2118/2224 VRB05KT P6SM FEW050
     FM212000 19005KT P6SM SCT060
     FM220800 00000KT P6SM MIFG FEW060
     FM221200 24005KT P6SM SCT060
     FM221800 24009KT P6SM SCT060 BKN200=

USA.gov is the U.S. government's official web portal to all federal, state and local government web resources and services.